createdAt,value
2018-11-23T00:04:09.350Z,18.60
2018-11-23T00:09:22.698Z,19.07
2018-11-23T00:14:36.057Z,19.40
2018-11-23T00:19:49.459Z,19.60
2018-11-23T00:25:02.811Z,18.53
2018-11-23T00:30:20.687Z,18.70
2018-11-23T00:35:34.034Z,19.20
2018-11-23T00:40:47.448Z,19.17
2018-11-23T00:46:00.817Z,18.63
2018-11-23T00:51:14.252Z,19.17
2018-11-23T00:56:27.629Z,18.93
2018-11-23T01:02:00.347Z,18.47
2018-11-23T01:07:13.831Z,19.20
2018-11-23T01:12:27.268Z,20.00
2018-11-23T01:17:40.659Z,19.40
2018-11-23T01:22:54.745Z,20.67
2018-11-23T01:28:08.111Z,19.97
2018-11-23T01:33:21.472Z,19.80
2018-11-23T01:38:34.850Z,18.90
2018-11-23T01:43:48.236Z,19.63
2018-11-23T01:49:01.617Z,19.40
2018-11-23T01:54:15.000Z,19.60
2018-11-23T01:59:28.372Z,20.17
2018-11-23T02:04:41.756Z,19.63
2018-11-23T02:09:55.216Z,18.57
2018-11-23T02:15:13.103Z,17.93
2018-11-23T02:20:26.484Z,17.87
2018-11-23T02:25:39.855Z,17.87
2018-11-23T02:30:53.224Z,19.13
2018-11-23T02:36:07.670Z,20.33
2018-11-23T02:41:21.018Z,18.10
2018-11-23T02:46:34.365Z,18.67
2018-11-23T02:51:48.519Z,19.23
2018-11-23T02:57:01.919Z,19.00
2018-11-23T03:02:15.290Z,19.13
2018-11-23T03:07:28.677Z,19.40
2018-11-23T03:12:42.457Z,19.83
2018-11-23T03:17:55.818Z,19.70
2018-11-23T03:23:09.176Z,18.20
2018-11-23T03:28:22.553Z,19.40
2018-11-23T03:33:35.931Z,18.43
2018-11-23T03:38:49.508Z,19.57
2018-11-23T03:44:02.936Z,19.53
2018-11-23T03:49:16.348Z,18.20
2018-11-23T03:54:29.712Z,19.23
2018-11-23T03:59:43.099Z,18.77
2018-11-23T04:04:56.818Z,19.33
2018-11-23T04:10:11.819Z,20.03
2018-11-23T04:15:25.219Z,19.10
2018-11-23T04:20:38.599Z,19.77
2018-11-23T04:25:51.974Z,18.70
2018-11-23T04:31:05.765Z,18.33
2018-11-23T04:36:19.151Z,18.70
2018-11-23T04:41:32.836Z,19.73
2018-11-23T04:46:46.475Z,18.70
2018-11-23T04:51:59.828Z,18.50
2018-11-23T04:57:13.214Z,19.17
2018-11-23T05:02:26.769Z,19.17
2018-11-23T05:07:40.517Z,19.23
2018-11-23T05:12:53.892Z,19.60
2018-11-23T05:18:07.251Z,19.97
2018-11-23T05:23:20.618Z,19.30
2018-11-23T05:28:33.992Z,20.20
2018-11-23T05:33:47.621Z,19.33
2018-11-23T05:39:00.613Z,17.93
2018-11-23T05:44:13.647Z,17.83
2018-11-23T05:49:27.047Z,18.73
2018-11-23T05:54:40.397Z,18.40
2018-11-23T05:59:53.757Z,18.83
2018-11-23T06:05:07.788Z,19.17
2018-11-23T06:10:21.625Z,19.20
2018-11-23T06:15:34.998Z,19.60
2018-11-23T06:20:48.351Z,18.63
2018-11-23T06:26:22.907Z,18.03
2018-11-23T06:31:36.321Z,19.37
2018-11-23T06:36:49.689Z,19.53
2018-11-23T06:42:03.047Z,19.63
2018-11-23T06:47:16.393Z,19.10
2018-11-23T06:52:29.784Z,19.70
2018-11-23T06:57:43.137Z,19.40
2018-11-23T07:02:59.220Z,19.53
2018-11-23T07:08:10.945Z,19.83
2018-11-23T07:13:24.293Z,20.33
2018-11-23T07:18:37.693Z,20.10
2018-11-23T07:23:51.067Z,19.83
2018-11-23T07:29:04.947Z,20.70
2018-11-23T07:34:18.311Z,19.67
2018-11-23T07:40:09.968Z,20.27
2018-11-23T07:45:23.385Z,20.47
2018-11-23T07:50:36.814Z,20.70
2018-11-23T07:55:50.177Z,18.60
2018-11-23T08:01:03.912Z,19.37
2018-11-23T08:06:17.295Z,19.87
2018-11-23T08:11:30.716Z,20.03
2018-11-23T08:16:44.068Z,19.70
2018-11-23T08:21:57.540Z,19.53
2018-11-23T08:27:10.909Z,19.70
2018-11-23T08:32:24.340Z,19.97
2018-11-23T08:37:37.972Z,20.13
2018-11-23T08:42:52.057Z,19.97
2018-11-23T08:48:05.849Z,19.27
2018-11-23T08:53:19.303Z,19.73
2018-11-23T08:58:34.186Z,19.20
2018-11-23T09:03:46.100Z,19.17
2018-11-23T09:08:59.447Z,20.17
2018-11-23T09:14:12.822Z,20.10
2018-11-23T09:19:26.206Z,19.93
2018-11-23T09:24:20.443Z,19.67
2018-11-23T09:29:14.692Z,20.10
2018-11-23T09:34:08.885Z,20.43
2018-11-23T09:39:04.788Z,19.23
2018-11-23T09:43:59.019Z,20.17
2018-11-23T09:48:53.242Z,20.77
2018-11-23T09:53:47.461Z,20.37
2018-11-23T09:58:43.608Z,19.67
2018-11-23T10:03:35.997Z,19.80
2018-11-23T10:08:33.501Z,19.60
2018-11-23T10:13:24.454Z,19.27
2018-11-23T10:18:18.689Z,19.77
2018-11-23T10:23:12.953Z,19.33
2018-11-23T10:28:07.250Z,19.80
2018-11-23T10:33:04.268Z,20.03
2018-11-23T10:37:59.755Z,19.67
2018-11-23T10:42:53.960Z,19.80
2018-11-23T10:47:48.772Z,18.97
2018-11-23T10:52:43.008Z,20.43
2018-11-23T10:57:37.258Z,19.30
2018-11-23T11:02:44.325Z,18.50
2018-11-23T11:07:38.526Z,18.53
2018-11-23T11:12:32.757Z,18.60
2018-11-23T11:17:27.016Z,19.80
2018-11-23T11:22:21.258Z,20.37
2018-11-23T11:27:15.473Z,18.57
2018-11-23T11:32:09.721Z,19.43
2018-11-23T11:37:03.944Z,18.57
2018-11-23T11:41:58.140Z,18.20
2018-11-23T11:46:52.415Z,17.27
2018-11-23T11:51:46.585Z,17.93
2018-11-23T11:56:40.871Z,18.83
2018-11-23T12:01:35.068Z,18.90
2018-11-23T12:06:29.286Z,17.43
2018-11-23T12:11:23.491Z,16.87
2018-11-23T12:16:17.815Z,17.80
2018-11-23T12:21:12.127Z,18.00
2018-11-23T12:26:06.547Z,16.77
2018-11-23T12:31:00.779Z,16.67
2018-11-23T12:35:55.042Z,17.90
2018-11-23T12:40:49.271Z,18.27
2018-11-23T12:45:43.513Z,17.10
2018-11-23T12:50:37.763Z,16.93
2018-11-23T12:55:32.048Z,17.53
2018-11-23T13:00:27.470Z,17.20
2018-11-23T13:05:22.629Z,16.30
2018-11-23T13:10:16.931Z,16.60
2018-11-23T13:15:11.177Z,16.97
2018-11-23T13:20:12.105Z,15.80
2018-11-23T13:25:09.981Z,15.90
2018-11-23T13:30:04.505Z,16.57
2018-11-23T13:34:58.747Z,16.43
2018-11-23T13:39:53.062Z,15.37
2018-11-23T13:44:47.276Z,16.60
2018-11-23T13:49:41.647Z,15.73
2018-11-23T13:54:35.856Z,15.17
2018-11-23T13:59:30.156Z,15.57
2018-11-23T14:04:24.406Z,15.37
2018-11-23T14:09:19.028Z,15.23
2018-11-23T14:14:13.240Z,14.93
2018-11-23T14:19:07.486Z,15.73
2018-11-23T14:24:02.195Z,13.97
2018-11-23T14:28:56.397Z,13.50
2018-11-23T14:33:50.665Z,14.20
2018-11-23T14:38:44.867Z,14.83
2018-11-23T14:44:14.873Z,15.03
2018-11-23T14:49:08.156Z,15.85
2018-11-23T14:54:01.425Z,14.20
2018-11-23T14:58:54.730Z,14.25
2018-11-23T15:03:48.025Z,14.18
2018-11-23T15:08:41.283Z,15.18
2018-11-23T15:13:34.565Z,15.80
2018-11-23T15:18:27.958Z,15.08
2018-11-23T15:23:21.347Z,15.20
2018-11-23T15:28:15.074Z,15.68
2018-11-23T15:33:09.760Z,15.13
2018-11-23T15:38:06.057Z,15.75
2018-11-23T15:42:58.183Z,15.80
2018-11-23T15:47:51.695Z,15.58
2018-11-23T15:52:45.628Z,15.10
2018-11-23T15:57:39.138Z,15.70
2018-11-23T16:02:32.455Z,16.02
2018-11-23T16:07:25.712Z,15.88
2018-11-23T16:12:19.028Z,15.38
2018-11-23T16:17:12.306Z,15.00
2018-11-23T16:22:05.587Z,14.78
2018-11-23T16:26:58.896Z,15.78
2018-11-23T16:31:52.183Z,14.90
2018-11-23T16:36:45.498Z,15.05
2018-11-23T16:41:38.839Z,15.70
2018-11-23T16:46:32.114Z,14.53
2018-11-23T16:51:25.416Z,14.83
2018-11-23T16:56:18.724Z,14.18
2018-11-23T17:01:12.044Z,14.40
2018-11-23T17:06:05.666Z,14.78
2018-11-23T17:10:58.905Z,15.05
2018-11-23T17:15:52.317Z,14.75
2018-11-23T17:20:45.591Z,15.03
2018-11-23T17:25:38.882Z,14.75
2018-11-23T17:30:32.899Z,15.28
2018-11-23T17:35:26.558Z,14.40
2018-11-23T17:40:21.408Z,15.53
2018-11-23T17:45:18.157Z,14.95
2018-11-23T17:50:15.060Z,14.85
2018-11-23T17:55:09.455Z,15.15
2018-11-23T18:00:03.545Z,15.83
2018-11-23T18:04:56.825Z,16.15
2018-11-23T18:09:50.103Z,15.32
2018-11-23T18:14:43.448Z,15.45
2018-11-23T18:19:36.740Z,15.60
2018-11-23T18:24:30.042Z,15.83
2018-11-23T18:29:23.316Z,16.97
2018-11-23T18:34:16.614Z,16.60
2018-11-23T18:39:09.936Z,16.23
2018-11-23T18:44:03.254Z,15.60
2018-11-23T18:48:56.501Z,15.58
2018-11-23T18:53:49.808Z,15.60
2018-11-23T18:58:43.087Z,15.65
2018-11-23T19:03:36.369Z,15.65
2018-11-23T19:08:29.653Z,14.68
2018-11-23T19:13:22.954Z,15.03
2018-11-23T19:18:16.280Z,16.25
2018-11-23T19:23:09.573Z,15.88
2018-11-23T19:28:02.830Z,16.10
2018-11-23T19:32:56.106Z,14.90
2018-11-23T19:37:49.425Z,15.68
2018-11-23T19:42:43.646Z,14.47
2018-11-23T19:47:36.993Z,14.90
2018-11-23T19:52:30.238Z,15.25
2018-11-23T19:57:23.539Z,15.55
2018-11-23T20:02:16.825Z,15.48
2018-11-23T20:07:10.144Z,16.48
2018-11-23T20:12:03.443Z,16.48
2018-11-23T20:16:56.782Z,15.88
2018-11-23T20:21:50.122Z,15.80
2018-11-23T20:26:43.408Z,16.95
2018-11-23T20:31:36.715Z,15.72
2018-11-23T20:36:30.005Z,15.45
2018-11-23T20:41:23.300Z,16.55
2018-11-23T20:46:16.569Z,17.25
2018-11-23T20:51:09.889Z,15.48
2018-11-23T20:56:03.244Z,16.32
2018-11-23T21:00:56.549Z,15.25
2018-11-23T21:05:49.862Z,16.10
2018-11-23T21:10:43.082Z,17.17
2018-11-23T21:15:36.365Z,15.88
2018-11-23T21:20:29.658Z,16.05
2018-11-23T21:25:22.974Z,15.78
2018-11-23T21:30:20.910Z,17.05
2018-11-23T21:35:14.378Z,15.75
2018-11-23T21:40:12.241Z,15.58
2018-11-23T21:45:08.772Z,15.53
2018-11-23T21:50:02.130Z,16.00
2018-11-23T21:54:55.452Z,14.78
2018-11-23T21:59:48.798Z,14.95
2018-11-23T22:04:42.116Z,15.30
2018-11-23T22:09:35.436Z,14.65
2018-11-23T22:14:28.724Z,14.47
2018-11-23T22:19:21.980Z,15.10
2018-11-23T22:24:15.287Z,15.93
2018-11-23T22:29:08.595Z,14.85
2018-11-23T22:34:01.879Z,15.30
2018-11-23T22:38:55.174Z,14.58
2018-11-23T22:43:48.442Z,16.57
2018-11-23T22:48:41.747Z,14.75
2018-11-23T22:53:35.062Z,16.35
2018-11-23T22:58:29.415Z,16.42
2018-11-23T23:03:21.620Z,16.17
2018-11-23T23:08:14.923Z,15.68
2018-11-23T23:13:08.215Z,16.95
2018-11-23T23:18:01.579Z,15.95
2018-11-23T23:22:55.696Z,16.07
2018-11-23T23:27:49.055Z,16.45
2018-11-23T23:32:42.618Z,16.93
2018-11-23T23:37:36.051Z,15.18
2018-11-23T23:42:29.399Z,16.40
2018-11-23T23:47:22.774Z,16.23
2018-11-23T23:52:16.170Z,15.65
2018-11-23T23:57:09.500Z,14.87
